Time;durP1;ratioP1;P1;durP2;ratioP2;P2;SDS_P1;SDS_P2;PMS_P1;PMS_P2;Temp;Humidity;BMP_temperature;BMP_pressure;BME280_temperature;BME280_humidity;BME280_pressure;Samples;Min_cycle;Max_cycle;Signal;HPM_P1;HPM_P2
2023/10/27 00:00:45;;;;;;;0.00;0.00;;;;;;;;;;4994351;28;20371;-82
2023/10/27 00:03:11;;;;;;;0.00;0.00;;;;;;;;;;4977291;28;20064;-81
2023/10/27 00:05:37;;;;;;;0.00;0.00;;;;;;;;;;4977168;28;20038;-80
2023/10/27 00:08:02;;;;;;;0.00;0.00;;;;;;;;;;4977044;28;20372;-80
2023/10/27 00:10:28;;;;;;;0.00;0.00;;;;;;;;;;4994696;28;20467;-80
2023/10/27 00:12:53;;;;;;;0.00;0.00;;;;;;;;;;4961357;28;20034;-81
2023/10/27 00:15:19;;;;;;;0.00;0.00;;;;;;;;;;4944111;28;20058;-81
2023/10/27 00:17:44;;;;;;;0.00;0.00;;;;;;;;;;4961282;28;20042;-81
2023/10/27 00:20:10;;;;;;;0.00;0.00;;;;;;;;;;5005904;28;20041;-80
2023/10/27 00:22:36;;;;;;;0.00;0.00;;;;;;;;;;4980568;28;20041;-80
2023/10/27 00:25:02;;;;;;;0.00;0.00;;;;;;;;;;5013785;28;20065;-80
2023/10/27 00:27:27;;;;;;;0.00;0.00;;;;;;;;;;4980777;28;20041;-80
2023/10/27 00:29:53;;;;;;;0.00;0.00;;;;;;;;;;4996811;28;20080;-80
2023/10/27 00:32:18;;;;;;;0.00;0.00;;;;;;;;;;4980410;28;20456;-81
2023/10/27 00:34:44;;;;;;;0.00;0.00;;;;;;;;;;5014059;28;20460;-80
2023/10/27 00:37:09;;;;;;;0.00;0.00;;;;;;;;;;4996616;28;20053;-81
2023/10/27 00:39:35;;;;;;;0.00;0.00;;;;;;;;;;4963934;28;20365;-80
2023/10/27 00:42:00;;;;;;;0.00;0.00;;;;;;;;;;4994780;28;20367;-81
2023/10/27 00:44:25;;;;;;;0.00;0.00;;;;;;;;;;4994721;28;20516;-80
2023/10/27 00:46:51;;;;;;;0.00;0.00;;;;;;;;;;4961156;28;20121;-80
2023/10/27 00:49:16;;;;;;;0.00;0.00;;;;;;;;;;4945678;28;20467;-80
2023/10/27 00:51:46;;;;;;;0.00;0.00;;;;;;;;;;4961506;28;20023;-80
2023/10/27 00:54:11;;;;;;;0.00;0.00;;;;;;;;;;4957415;28;20390;-79
2023/10/27 00:56:37;;;;;;;0.00;0.00;;;;;;;;;;4957889;28;20038;-80
2023/10/27 00:59:03;;;;;;;0.00;0.00;;;;;;;;;;4959443;28;20042;-79
2023/10/27 01:01:28;;;;;;;0.00;0.00;;;;;;;;;;4961562;28;20634;-81
2023/10/27 01:03:55;;;;;;;0.00;0.00;;;;;;;;;;4961141;28;20039;-79
2023/10/27 01:06:22;;;;;;;0.00;0.00;;;;;;;;;;4978412;28;20066;-79
2023/10/27 01:08:48;;;;;;;0.00;0.00;;;;;;;;;;4978597;28;20038;-79
2023/10/27 01:11:13;;;;;;;0.00;0.00;;;;;;;;;;4977265;28;20026;-79
2023/10/27 01:13:38;;;;;;;0.00;0.00;;;;;;;;;;4976926;28;20026;-80
2023/10/27 01:16:04;;;;;;;0.00;0.00;;;;;;;;;;4959901;28;20062;-81
2023/10/27 01:18:30;;;;;;;0.00;0.00;;;;;;;;;;4961216;28;20117;-81
2023/10/27 01:20:55;;;;;;;0.00;0.00;;;;;;;;;;4978349;28;20136;-81
2023/10/27 01:23:20;;;;;;;0.00;0.00;;;;;;;;;;4960734;28;20093;-81
2023/10/27 01:25:46;;;;;;;0.00;0.00;;;;;;;;;;4961015;28;20030;-81
2023/10/27 01:28:11;;;;;;;0.00;0.00;;;;;;;;;;4978398;28;20350;-81
2023/10/27 01:30:37;;;;;;;0.00;0.00;;;;;;;;;;4978418;28;20039;-80
2023/10/27 01:33:02;;;;;;;0.00;0.00;;;;;;;;;;4977100;28;20097;-80
2023/10/27 01:35:28;;;;;;;0.00;0.00;;;;;;;;;;4976786;28;20027;-80
2023/10/27 01:37:53;;;;;;;0.00;0.00;;;;;;;;;;4981216;28;20104;-81
2023/10/27 01:40:19;;;;;;;0.00;0.00;;;;;;;;;;4996586;28;20117;-80
2023/10/27 01:42:44;;;;;;;0.00;0.00;;;;;;;;;;4980329;28;20053;-81
2023/10/27 01:45:11;;;;;;;0.00;0.00;;;;;;;;;;4997373;28;20038;-81
2023/10/27 01:47:36;;;;;;;0.00;0.00;;;;;;;;;;4997225;28;20062;-80
2023/10/27 01:50:01;;;;;;;0.00;0.00;;;;;;;;;;4979665;28;20427;-81
2023/10/27 01:52:27;;;;;;;0.00;0.00;;;;;;;;;;4997059;28;20468;-81
2023/10/27 01:54:53;;;;;;;0.00;0.00;;;;;;;;;;4990159;28;20211;-80
2023/10/27 01:57:22;;;;;;;0.00;0.00;;;;;;;;;;4986420;28;20026;-80
2023/10/27 01:59:48;;;;;;;0.00;0.00;;;;;;;;;;4999634;28;20029;-79
2023/10/27 02:02:15;;;;;;;0.00;0.00;;;;;;;;;;5016808;28;20391;-80
2023/10/27 02:04:41;;;;;;;0.00;0.00;;;;;;;;;;5017006;28;20030;-80
2023/10/27 02:07:06;;;;;;;0.00;0.00;;;;;;;;;;4982448;28;20470;-80
2023/10/27 02:09:32;;;;;;;0.00;0.00;;;;;;;;;;4982030;28;20030;-80
2023/10/27 02:11:57;;;;;;;0.00;0.00;;;;;;;;;;4998746;28;20033;-80
2023/10/27 02:14:25;;;;;;;0.00;0.00;;;;;;;;;;4998700;28;20053;-80
2023/10/27 02:16:50;;;;;;;0.00;0.00;;;;;;;;;;4998590;28;20367;-82
2023/10/27 02:19:16;;;;;;;0.00;0.00;;;;;;;;;;4994163;28;20030;-81
2023/10/27 02:21:41;;;;;;;0.00;0.00;;;;;;;;;;4995018;28;20061;-81
2023/10/27 02:24:07;;;;;;;0.00;0.00;;;;;;;;;;4996405;28;20034;-80
2023/10/27 02:26:32;;;;;;;0.00;0.00;;;;;;;;;;4996320;28;20117;-80
2023/10/27 02:28:57;;;;;;;0.00;0.00;;;;;;;;;;4978949;28;20092;-80
2023/10/27 02:31:23;;;;;;;0.00;0.00;;;;;;;;;;4978127;28;20502;-80
2023/10/27 02:33:48;;;;;;;0.00;0.00;;;;;;;;;;4996143;28;20030;-80
2023/10/27 02:36:14;;;;;;;0.00;0.00;;;;;;;;;;4979042;28;20035;-81
2023/10/27 02:38:39;;;;;;;0.00;0.00;;;;;;;;;;4978370;28;20456;-81
2023/10/27 02:41:08;;;;;;;0.00;0.00;;;;;;;;;;4996208;28;20042;-81
2023/10/27 02:43:34;;;;;;;0.00;0.00;;;;;;;;;;4962506;28;20355;-80
2023/10/27 02:46:01;;;;;;;0.00;0.00;;;;;;;;;;4995886;28;20026;-80
2023/10/27 02:48:26;;;;;;;0.00;0.00;;;;;;;;;;4996234;28;20068;-78
2023/10/27 02:50:51;;;;;;;0.00;0.00;;;;;;;;;;4978325;28;20030;-79
2023/10/27 02:53:17;;;;;;;0.00;0.00;;;;;;;;;;4994519;28;20022;-80
2023/10/27 02:55:42;;;;;;;0.00;0.00;;;;;;;;;;4962207;28;20030;-80
2023/10/27 02:58:08;;;;;;;0.00;0.00;;;;;;;;;;4971492;28;20034;-80
2023/10/27 03:00:33;;;;;;;0.00;0.00;;;;;;;;;;4995609;28;20033;-80
2023/10/27 03:02:58;;;;;;;0.00;0.00;;;;;;;;;;4961874;28;20461;-79
2023/10/27 03:05:24;;;;;;;0.00;0.00;;;;;;;;;;4962098;28;20022;-80
2023/10/27 03:07:49;;;;;;;0.00;0.00;;;;;;;;;;4962015;28;20449;-81
2023/10/27 03:10:15;;;;;;;0.00;0.00;;;;;;;;;;4961901;28;20022;-81
2023/10/27 03:12:40;;;;;;;0.00;0.00;;;;;;;;;;4961550;28;20484;-83
2023/10/27 03:15:06;;;;;;;0.00;0.00;;;;;;;;;;4995262;28;20042;-82
2023/10/27 03:17:31;;;;;;;0.00;0.00;;;;;;;;;;4961572;28;20045;-83
2023/10/27 03:19:57;;;;;;;0.00;0.00;;;;;;;;;;4978191;28;20507;-81
2023/10/27 03:22:22;;;;;;;0.00;0.00;;;;;;;;;;4977030;28;20117;-81
2023/10/27 03:24:48;;;;;;;0.00;0.00;;;;;;;;;;4994961;28;20146;-81
2023/10/27 03:27:13;;;;;;;0.00;0.00;;;;;;;;;;4995164;28;20041;-82
2023/10/27 03:29:39;;;;;;;0.00;0.00;;;;;;;;;;4977958;28;20029;-82
2023/10/27 03:32:06;;;;;;;0.00;0.00;;;;;;;;;;4977704;28;20636;-81
2023/10/27 03:34:32;;;;;;;0.00;0.00;;;;;;;;;;4994080;28;20034;-81
2023/10/27 03:36:57;;;;;;;0.00;0.00;;;;;;;;;;4995049;28;20085;-81
2023/10/27 03:39:23;;;;;;;0.00;0.00;;;;;;;;;;4994163;28;20050;-82
2023/10/27 03:41:48;;;;;;;0.00;0.00;;;;;;;;;;4995653;28;20037;-80
2023/10/27 03:44:14;;;;;;;0.00;0.00;;;;;;;;;;4995041;28;20081;-82
2023/10/27 03:46:39;;;;;;;0.00;0.00;;;;;;;;;;4994889;28;20046;-81
2023/10/27 03:49:04;;;;;;;0.00;0.00;;;;;;;;;;4993822;28;20448;-81
2023/10/27 03:51:32;;;;;;;0.00;0.00;;;;;;;;;;4995527;28;20030;-83
2023/10/27 03:53:58;;;;;;;0.00;0.00;;;;;;;;;;4977402;28;20460;-81
2023/10/27 03:56:23;;;;;;;0.00;0.00;;;;;;;;;;4995036;28;20049;-80
2023/10/27 03:58:49;;;;;;;0.00;0.00;;;;;;;;;;4994905;28;20026;-81
2023/10/27 04:01:15;;;;;;;0.00;0.00;;;;;;;;;;4994769;28;20654;-82
2023/10/27 04:03:40;;;;;;;0.00;0.00;;;;;;;;;;4977489;28;20037;-81
2023/10/27 04:06:06;;;;;;;0.00;0.00;;;;;;;;;;4977220;28;20368;-80
2023/10/27 04:08:31;;;;;;;0.00;0.00;;;;;;;;;;4993619;28;20026;-79
2023/10/27 04:10:57;;;;;;;0.00;0.00;;;;;;;;;;4994835;28;20033;-79
2023/10/27 04:13:22;;;;;;;0.00;0.00;;;;;;;;;;4977304;28;20361;-80
2023/10/27 04:15:48;;;;;;;0.00;0.00;;;;;;;;;;4994832;28;20038;-80
2023/10/27 04:18:13;;;;;;;0.00;0.00;;;;;;;;;;4977510;28;20034;-80
2023/10/27 04:20:39;;;;;;;0.00;0.00;;;;;;;;;;4992268;28;20030;-80
2023/10/27 04:23:07;;;;;;;0.00;0.00;;;;;;;;;;5014393;28;20522;-80
2023/10/27 04:25:33;;;;;;;0.00;0.00;;;;;;;;;;4981095;28;20026;-79
2023/10/27 04:27:58;;;;;;;0.00;0.00;;;;;;;;;;4985730;28;20036;-80
2023/10/27 04:30:26;;;;;;;0.00;0.00;;;;;;;;;;4981129;28;20082;-81
2023/10/27 04:32:52;;;;;;;0.00;0.00;;;;;;;;;;4980997;28;20296;-80
2023/10/27 04:35:17;;;;;;;0.00;0.00;;;;;;;;;;5008281;28;20058;-81
2023/10/27 04:37:43;;;;;;;0.00;0.00;;;;;;;;;;5006368;28;20365;-81
2023/10/27 04:40:10;;;;;;;0.00;0.00;;;;;;;;;;4982627;28;20041;-80
2023/10/27 04:42:35;;;;;;;0.00;0.00;;;;;;;;;;4964134;28;20038;-79
2023/10/27 04:45:02;;;;;;;0.00;0.00;;;;;;;;;;4997478;28;20041;-80
2023/10/27 04:47:28;;;;;;;0.00;0.00;;;;;;;;;;4997800;28;20042;-78
2023/10/27 04:49:53;;;;;;;0.00;0.00;;;;;;;;;;4996540;28;20126;-78
2023/10/27 04:52:19;;;;;;;0.00;0.00;;;;;;;;;;4977910;28;20453;-79
2023/10/27 04:54:44;;;;;;;0.00;0.00;;;;;;;;;;4996875;28;20096;-79
2023/10/27 04:57:10;;;;;;;0.00;0.00;;;;;;;;;;4996770;28;20360;-77
2023/10/27 04:59:36;;;;;;;0.00;0.00;;;;;;;;;;4997193;28;20109;-78
2023/10/27 05:02:01;;;;;;;0.00;0.00;;;;;;;;;;4996840;28;20100;-78
2023/10/27 05:04:26;;;;;;;0.00;0.00;;;;;;;;;;4991918;28;20392;-79
2023/10/27 05:06:52;;;;;;;0.00;0.00;;;;;;;;;;4976096;28;20038;-78
2023/10/27 05:09:18;;;;;;;0.00;0.00;;;;;;;;;;4997077;28;20034;-77
2023/10/27 05:11:47;;;;;;;0.00;0.00;;;;;;;;;;4965891;28;20468;-77
2023/10/27 05:14:13;;;;;;;0.00;0.00;;;;;;;;;;4979429;28;20085;-78
2023/10/27 05:16:40;;;;;;;0.00;0.00;;;;;;;;;;4999443;28;20034;-77
2023/10/27 05:19:06;;;;;;;0.05;0.00;;;;;;;;;;4997509;28;20491;-76
2023/10/27 05:21:31;;;;;;;0.00;0.00;;;;;;;;;;5011728;28;20038;-78
2023/10/27 05:23:57;;;;;;;0.00;0.00;;;;;;;;;;4994851;28;20465;-79
2023/10/27 05:26:24;;;;;;;0.00;0.00;;;;;;;;;;4975239;28;20471;-78
2023/10/27 05:28:50;;;;;;;0.00;0.00;;;;;;;;;;4967339;28;20107;-78
2023/10/27 05:31:16;;;;;;;0.00;0.00;;;;;;;;;;4992453;28;20045;-81
2023/10/27 05:33:41;;;;;;;0.00;0.00;;;;;;;;;;4977902;28;20564;-78
2023/10/27 05:36:07;;;;;;;0.00;0.00;;;;;;;;;;4995955;28;20077;-78
2023/10/27 05:38:32;;;;;;;0.00;0.00;;;;;;;;;;4990135;28;20051;-78
2023/10/27 05:40:57;;;;;;;0.10;0.00;;;;;;;;;;4995430;28;20022;-79
2023/10/27 05:43:23;;;;;;;0.20;0.08;;;;;;;;;;4969352;28;20201;-79
2023/10/27 05:45:49;;;;;;;0.45;0.17;;;;;;;;;;4990389;28;20038;-78
2023/10/27 05:48:14;;;;;;;0.00;0.00;;;;;;;;;;4977055;28;20065;-78
2023/10/27 05:50:40;;;;;;;0.10;0.00;;;;;;;;;;4993086;28;20672;-76
2023/10/27 05:53:08;;;;;;;0.35;0.05;;;;;;;;;;4975728;28;20692;-78
2023/10/27 05:55:34;;;;;;;0.00;0.00;;;;;;;;;;4971228;28;20045;-76
2023/10/27 05:58:00;;;;;;;0.00;0.00;;;;;;;;;;4968071;28;20046;-77
2023/10/27 06:00:25;;;;;;;0.00;0.00;;;;;;;;;;4990766;28;20023;-75
2023/10/27 06:02:52;;;;;;;0.00;0.00;;;;;;;;;;4998065;28;20060;-77
2023/10/27 06:05:20;;;;;;;0.05;0.00;;;;;;;;;;4989994;28;20034;-75
2023/10/27 06:07:45;;;;;;;0.10;0.10;;;;;;;;;;4968888;28;20608;-77
2023/10/27 06:10:11;;;;;;;0.00;0.00;;;;;;;;;;4983026;28;20026;-75
2023/10/27 06:12:45;;;;;;;0.00;0.00;;;;;;;;;;4959801;28;20042;-75
2023/10/27 06:15:11;;;;;;;0.00;0.00;;;;;;;;;;4994180;28;20034;-75
2023/10/27 06:17:36;;;;;;;0.00;0.00;;;;;;;;;;4976986;28;20473;-74
2023/10/27 06:22:49;;;;;;;0.00;0.00;;;;;;;;;;4998891;28;20041;-77
2023/10/27 06:25:14;;;;;;;0.00;0.00;;;;;;;;;;5013900;28;20033;-77
2023/10/27 06:27:40;;;;;;;0.00;0.00;;;;;;;;;;4997136;28;20388;-76
2023/10/27 06:30:06;;;;;;;0.05;0.00;;;;;;;;;;4998138;28;20049;-76
2023/10/27 06:32:37;;;;;;;0.00;0.00;;;;;;;;;;4995205;28;20169;-78
2023/10/27 06:35:03;;;;;;;0.00;0.00;;;;;;;;;;4994468;28;20073;-78
2023/10/27 06:37:29;;;;;;;0.00;0.00;;;;;;;;;;4995855;28;20034;-76
2023/10/27 06:39:58;;;;;;;0.00;0.00;;;;;;;;;;4995396;28;20056;-79
2023/10/27 06:42:25;;;;;;;0.00;0.00;;;;;;;;;;4994036;28;20448;-77
2023/10/27 06:44:51;;;;;;;0.00;0.00;;;;;;;;;;4994478;28;20046;-77
2023/10/27 06:47:20;;;;;;;0.00;0.00;;;;;;;;;;4994076;28;20038;-77
2023/10/27 06:49:45;;;;;;;0.00;0.00;;;;;;;;;;4993411;28;20084;-75
2023/10/27 06:52:11;;;;;;;0.00;0.00;;;;;;;;;;4997662;28;20034;-77
2023/10/27 06:54:42;;;;;;;0.00;0.00;;;;;;;;;;4999462;28;20341;-78
2023/10/27 06:57:07;;;;;;;0.00;0.00;;;;;;;;;;4989107;28;20039;-76
2023/10/27 06:59:33;;;;;;;0.00;0.00;;;;;;;;;;4981633;28;20038;-76
2023/10/27 07:01:59;;;;;;;0.00;0.00;;;;;;;;;;5011258;28;20026;-74
2023/10/27 07:04:24;;;;;;;0.10;0.00;;;;;;;;;;5010132;28;20539;-76
2023/10/27 07:06:49;;;;;;;0.00;0.00;;;;;;;;;;5011342;28;20099;-76
2023/10/27 07:09:15;;;;;;;0.00;0.00;;;;;;;;;;5014804;28;20104;-77
2023/10/27 07:11:41;;;;;;;0.00;0.00;;;;;;;;;;5011216;28;20056;-79
2023/10/27 07:19:35;;;;;;;0.00;0.00;;;;;;;;;;5310230;23;20060;-78
2023/10/27 07:22:01;;;;;;;0.00;0.00;;;;;;;;;;5047907;28;20033;-78
2023/10/27 07:24:30;;;;;;;0.00;0.00;;;;;;;;;;5033806;28;20413;-78
2023/10/27 07:35:05;;;;;;;0.00;0.00;;;;;;;;;;5824540;23;20471;-79
2023/10/27 07:37:31;;;;;;;0.00;0.00;;;;;;;;;;4991684;28;20034;-77
2023/10/27 07:40:05;;;;;;;0.00;0.00;;;;;;;;;;4996484;28;20037;-80
2023/10/27 07:42:31;;;;;;;0.00;0.00;;;;;;;;;;5013543;28;20046;-79
2023/10/27 07:44:57;;;;;;;0.00;0.00;;;;;;;;;;4999016;28;20475;-77
2023/10/27 07:47:24;;;;;;;0.00;0.00;;;;;;;;;;5013589;28;20422;-77
2023/10/27 07:49:51;;;;;;;0.00;0.00;;;;;;;;;;4980171;28;20033;-78
2023/10/27 07:52:21;;;;;;;0.00;0.00;;;;;;;;;;4997297;28;20040;-78
2023/10/27 07:54:47;;;;;;;0.00;0.00;;;;;;;;;;4988057;28;20034;-79
2023/10/27 07:57:13;;;;;;;0.00;0.00;;;;;;;;;;4993609;28;20076;-78
2023/10/27 07:59:38;;;;;;;0.00;0.00;;;;;;;;;;5011340;28;20367;-78
2023/10/27 08:02:04;;;;;;;0.00;0.00;;;;;;;;;;5011596;28;20116;-80
2023/10/27 08:04:32;;;;;;;0.00;0.00;;;;;;;;;;5008636;28;20470;-77
2023/10/27 08:06:58;;;;;;;0.00;0.00;;;;;;;;;;5008626;28;20053;-77
2023/10/27 08:09:34;;;;;;;0.00;0.00;;;;;;;;;;4993838;28;20111;-79
2023/10/27 08:12:38;;;;;;;0.10;0.00;;;;;;;;;;4976941;28;20025;-75
2023/10/27 08:15:07;;;;;;;0.05;0.00;;;;;;;;;;4981006;28;20045;-76
2023/10/27 08:17:33;;;;;;;0.00;0.00;;;;;;;;;;4995308;28;20038;-77
2023/10/27 08:20:01;;;;;;;0.00;0.00;;;;;;;;;;4996244;28;21010;-76
2023/10/27 08:22:26;;;;;;;0.00;0.00;;;;;;;;;;5008879;28;20026;-78
2023/10/27 08:24:52;;;;;;;0.00;0.00;;;;;;;;;;5012617;28;20045;-75
2023/10/27 08:27:18;;;;;;;0.00;0.00;;;;;;;;;;5012074;28;20030;-82
2023/10/27 08:50:35;;;;;;;0.08;0.00;;;;;;;;;;5406211;23;20069;-78
2023/10/27 08:53:00;;;;;;;0.00;0.00;;;;;;;;;;4976398;28;20058;-77
2023/10/27 08:55:26;;;;;;;0.00;0.00;;;;;;;;;;4974981;28;20061;-76
2023/10/27 09:10:08;;;;;;;0.00;0.00;;;;;;;;;;5420710;23;20045;-76
2023/10/27 09:12:37;;;;;;;0.00;0.00;;;;;;;;;;5020233;28;20029;-75
2023/10/27 09:15:07;;;;;;;0.00;0.00;;;;;;;;;;4996683;28;20033;-76
2023/10/27 09:18:00;;;;;;;0.00;0.00;;;;;;;;;;5013174;28;20022;-77
2023/10/27 09:20:25;;;;;;;0.00;0.00;;;;;;;;;;4996248;28;20452;-77
2023/10/27 09:22:58;;;;;;;0.00;0.00;;;;;;;;;;4995529;28;20058;-74
2023/10/27 09:25:31;;;;;;;0.00;0.00;;;;;;;;;;5010552;28;20356;-75
2023/10/27 09:27:58;;;;;;;0.00;0.00;;;;;;;;;;4983238;28;20152;-76
2023/10/27 09:30:28;;;;;;;0.00;0.00;;;;;;;;;;4999177;28;20423;-77
2023/10/27 09:32:54;;;;;;;0.00;0.00;;;;;;;;;;5021087;28;20038;-74
2023/10/27 09:35:19;;;;;;;0.00;0.00;;;;;;;;;;5016007;28;20450;-77
2023/10/27 09:37:49;;;;;;;0.00;0.00;;;;;;;;;;4998483;28;20092;-75
2023/10/27 09:40:15;;;;;;;0.00;0.00;;;;;;;;;;5001391;28;20045;-77
2023/10/27 09:42:41;;;;;;;0.00;0.00;;;;;;;;;;5000770;28;20034;-76
2023/10/27 09:45:08;;;;;;;0.00;0.00;;;;;;;;;;4989917;28;20096;-76
2023/10/27 09:47:37;;;;;;;0.00;0.00;;;;;;;;;;5009281;28;20040;-77
2023/10/27 09:50:07;;;;;;;0.00;0.00;;;;;;;;;;4979108;28;20042;-76
2023/10/27 09:52:33;;;;;;;;;;;;;;;;;;5013624;28;20033;-78
2023/10/27 09:54:59;;;;;;;0.00;0.00;;;;;;;;;;5000111;28;19913;-78
2023/10/27 09:57:25;;;;;;;0.00;0.00;;;;;;;;;;5012653;28;20485;-78
2023/10/27 09:59:51;;;;;;;0.00;0.00;;;;;;;;;;4991501;28;20026;-77
2023/10/27 10:02:17;;;;;;;0.00;0.00;;;;;;;;;;5012315;28;20052;-78
2023/10/27 10:04:54;;;;;;;0.00;0.00;;;;;;;;;;4996586;28;20038;-80
2023/10/27 10:11:32;;;;;;;0.00;0.00;;;;;;;;;;5009191;28;20052;-78
2023/10/27 10:14:00;;;;;;;0.00;0.00;;;;;;;;;;5013706;28;20503;-77
2023/10/27 10:16:25;;;;;;;0.00;0.00;;;;;;;;;;5013188;28;20124;-77
2023/10/27 10:18:51;;;;;;;0.00;0.00;;;;;;;;;;5013672;28;20078;-77
2023/10/27 10:21:33;;;;;;;0.00;0.00;;;;;;;;;;5027207;28;20191;-78
2023/10/27 10:24:01;;;;;;;0.00;0.00;;;;;;;;;;5033694;28;20072;-80
2023/10/27 10:27:07;;;;;;;0.00;0.00;;;;;;;;;;5033488;28;20375;-76
2023/10/27 10:29:33;;;;;;;0.05;0.00;;;;;;;;;;5012875;28;20069;-79
2023/10/27 10:32:34;;;;;;;0.00;0.00;;;;;;;;;;5020386;28;20064;-78
2023/10/27 10:35:19;;;;;;;0.10;0.00;;;;;;;;;;5004436;28;20041;-78
2023/10/27 10:37:44;;;;;;;0.00;0.00;;;;;;;;;;4991081;28;20030;-77
2023/10/27 10:40:17;;;;;;;0.00;0.00;;;;;;;;;;5011681;28;20030;-77
2023/10/27 10:43:20;;;;;;;0.00;0.00;;;;;;;;;;5011527;28;20080;-77
2023/10/27 10:45:51;;;;;;;0.00;0.00;;;;;;;;;;5009868;28;20440;-76
2023/10/27 10:48:20;;;;;;;0.00;0.00;;;;;;;;;;5012132;28;20046;-79
2023/10/27 10:51:26;;;;;;;0.00;0.00;;;;;;;;;;4992699;28;20141;-79
2023/10/27 10:54:03;;;;;;;0.00;0.00;;;;;;;;;;5013184;28;20030;-81
2023/10/27 10:56:29;;;;;;;0.00;0.00;;;;;;;;;;4997148;28;20037;-80
2023/10/27 10:58:55;;;;;;;0.00;0.00;;;;;;;;;;4979040;28;20037;-78
2023/10/27 11:01:21;;;;;;;0.00;0.00;;;;;;;;;;5014203;28;20410;-77
2023/10/27 11:03:51;;;;;;;0.00;0.00;;;;;;;;;;5005951;28;20124;-79
2023/10/27 11:06:19;;;;;;;;;;;;;;;;;;5014449;28;20045;-80
2023/10/27 11:08:46;;;;;;;0.00;0.00;;;;;;;;;;5007968;28;19921;-82
2023/10/27 11:11:16;;;;;;;0.00;0.00;;;;;;;;;;4995638;28;20049;-82
2023/10/27 11:13:46;;;;;;;0.05;0.00;;;;;;;;;;4976580;28;20042;-77
2023/10/27 11:16:22;;;;;;;0.00;0.00;;;;;;;;;;4974436;28;20069;-77
2023/10/27 11:18:52;;;;;;;0.10;0.00;;;;;;;;;;4992707;28;20041;-82
2023/10/27 11:21:19;;;;;;;0.00;0.00;;;;;;;;;;4996066;28;20427;-81
2023/10/27 11:23:47;;;;;;;0.00;0.00;;;;;;;;;;5029791;28;20048;-80
2023/10/27 11:26:14;;;;;;;0.00;0.00;;;;;;;;;;5032602;28;20037;-80
2023/10/27 11:28:40;;;;;;;0.00;0.00;;;;;;;;;;5030895;28;20060;-80
2023/10/27 11:31:11;;;;;;;0.00;0.00;;;;;;;;;;4996899;28;20049;-80
2023/10/27 11:34:05;;;;;;;0.00;0.00;;;;;;;;;;5012909;28;20021;-81
2023/10/27 11:36:31;;;;;;;0.00;0.00;;;;;;;;;;5013975;28;20037;-81
2023/10/27 11:39:13;;;;;;;0.00;0.00;;;;;;;;;;5013889;28;20029;-80
2023/10/27 11:41:39;;;;;;;0.08;0.08;;;;;;;;;;4999321;28;20026;-80
2023/10/27 11:44:05;;;;;;;0.00;0.00;;;;;;;;;;5012871;28;20038;-81
2023/10/27 11:46:32;;;;;;;0.00;0.00;;;;;;;;;;4994763;28;20053;-81
2023/10/27 11:48:57;;;;;;;0.00;0.00;;;;;;;;;;4995352;28;20353;-80
2023/10/27 11:51:23;;;;;;;0.00;0.00;;;;;;;;;;5013030;28;20034;-80
2023/10/27 11:53:48;;;;;;;0.00;0.00;;;;;;;;;;5012802;28;20026;-80
2023/10/27 11:56:14;;;;;;;0.00;0.00;;;;;;;;;;5013133;28;20501;-81
2023/10/27 11:58:40;;;;;;;0.00;0.00;;;;;;;;;;5012918;28;20439;-82
2023/10/27 12:01:05;;;;;;;0.00;0.00;;;;;;;;;;5014706;28;20124;-81
2023/10/27 12:03:31;;;;;;;0.00;0.00;;;;;;;;;;5021387;28;20038;-81
2023/10/27 12:05:56;;;;;;;0.00;0.00;;;;;;;;;;5014607;28;20041;-81
2023/10/27 12:08:22;;;;;;;0.00;0.00;;;;;;;;;;5013997;28;20034;-80
2023/10/27 12:10:52;;;;;;;0.00;0.00;;;;;;;;;;4991819;28;20033;-82
2023/10/27 12:13:20;;;;;;;0.08;0.00;;;;;;;;;;5013589;28;20036;-81
2023/10/27 12:15:46;;;;;;;0.00;0.00;;;;;;;;;;4964482;28;20064;-81
2023/10/27 12:18:11;;;;;;;0.00;0.00;;;;;;;;;;5014036;28;20025;-83
2023/10/27 12:20:38;;;;;;;0.00;0.00;;;;;;;;;;5013616;28;20083;-82
2023/10/27 12:23:06;;;;;;;0.00;0.00;;;;;;;;;;5015952;28;20038;-83
2023/10/27 12:25:31;;;;;;;0.00;0.00;;;;;;;;;;5001917;28;20022;-80
2023/10/27 12:27:57;;;;;;;0.00;0.00;;;;;;;;;;4996529;28;20169;-80
2023/10/27 12:30:23;;;;;;;0.00;0.00;;;;;;;;;;4997691;28;20034;-80
2023/10/27 12:32:49;;;;;;;0.00;0.00;;;;;;;;;;4994400;28;20030;-81
2023/10/27 12:35:15;;;;;;;0.00;0.00;;;;;;;;;;4994588;28;20060;-81
2023/10/27 12:37:42;;;;;;;0.00;0.00;;;;;;;;;;4996220;28;20030;-79
2023/10/27 12:40:09;;;;;;;0.00;0.00;;;;;;;;;;5013940;28;20368;-79
2023/10/27 12:42:34;;;;;;;0.00;0.00;;;;;;;;;;5013630;28;20037;-81
2023/10/27 12:45:00;;;;;;;0.00;0.00;;;;;;;;;;4996411;28;20400;-80
2023/10/27 12:47:25;;;;;;;0.00;0.00;;;;;;;;;;5013824;28;20539;-79
2023/10/27 12:49:51;;;;;;;0.00;0.00;;;;;;;;;;4995873;28;20040;-81
2023/10/27 12:52:16;;;;;;;0.00;0.00;;;;;;;;;;5013541;28;20061;-79
2023/10/27 12:54:42;;;;;;;0.00;0.00;;;;;;;;;;4981250;28;20363;-81
2023/10/27 12:57:08;;;;;;;0.00;0.00;;;;;;;;;;4983443;28;20041;-79
2023/10/27 12:59:33;;;;;;;0.00;0.00;;;;;;;;;;5000380;28;20033;-80
2023/10/27 13:01:59;;;;;;;0.00;0.00;;;;;;;;;;5017606;28;20080;-80
2023/10/27 13:04:25;;;;;;;0.00;0.00;;;;;;;;;;5000596;28;20419;-80
2023/10/27 13:06:51;;;;;;;0.00;0.00;;;;;;;;;;5018988;28;20428;-79
2023/10/27 13:09:20;;;;;;;0.00;0.00;;;;;;;;;;5021141;28;20064;-80
2023/10/27 13:11:49;;;;;;;0.00;0.00;;;;;;;;;;5012786;28;20648;-79
2023/10/27 13:14:14;;;;;;;0.00;0.00;;;;;;;;;;4999937;28;20030;-81
2023/10/27 13:16:40;;;;;;;0.00;0.00;;;;;;;;;;5000392;28;20036;-82
2023/10/27 13:19:08;;;;;;;0.00;0.00;;;;;;;;;;5002336;28;20463;-82
2023/10/27 13:21:35;;;;;;;0.00;0.00;;;;;;;;;;5001988;28;20072;-82
2023/10/27 13:24:01;;;;;;;0.00;0.00;;;;;;;;;;5000412;28;20037;-80
2023/10/27 13:26:26;;;;;;;0.00;0.00;;;;;;;;;;5017087;28;20029;-80
2023/10/27 13:28:52;;;;;;;0.00;0.00;;;;;;;;;;5021020;28;20450;-81
2023/10/27 13:31:18;;;;;;;0.00;0.00;;;;;;;;;;5002665;28;20029;-81
2023/10/27 13:33:45;;;;;;;0.00;0.00;;;;;;;;;;5018688;28;20443;-81
2023/10/27 13:36:10;;;;;;;0.10;0.00;;;;;;;;;;5035330;28;20033;-80
2023/10/27 13:38:57;;;;;;;0.00;0.00;;;;;;;;;;5004490;28;20041;-82
2023/10/27 13:41:22;;;;;;;0.00;0.00;;;;;;;;;;4998900;28;20030;-82
2023/10/27 13:43:48;;;;;;;0.00;0.00;;;;;;;;;;4983376;28;20029;-82
2023/10/27 13:46:17;;;;;;;0.00;0.00;;;;;;;;;;5020786;28;20093;-80
2023/10/27 13:48:43;;;;;;;0.00;0.00;;;;;;;;;;5001082;28;20182;-80
2023/10/27 13:51:14;;;;;;;0.00;0.00;;;;;;;;;;5018219;28;20026;-81
2023/10/27 13:53:43;;;;;;;0.00;0.00;;;;;;;;;;5000066;28;20089;-82
2023/10/27 13:56:12;;;;;;;0.00;0.00;;;;;;;;;;4998628;28;20057;-82
2023/10/27 13:58:40;;;;;;;0.00;0.00;;;;;;;;;;4984332;28;20052;-81
2023/10/27 14:01:07;;;;;;;0.00;0.00;;;;;;;;;;5016936;28;20241;-81
2023/10/27 14:03:34;;;;;;;0.00;0.00;;;;;;;;;;5016232;28;20044;-81
2023/10/27 14:06:00;;;;;;;0.00;0.00;;;;;;;;;;5015982;28;20030;-82
2023/10/27 14:08:26;;;;;;;0.00;0.00;;;;;;;;;;5015719;28;20068;-80
2023/10/27 14:10:52;;;;;;;0.00;0.00;;;;;;;;;;5016276;28;20463;-81
2023/10/27 14:13:17;;;;;;;0.00;0.00;;;;;;;;;;5012491;28;20160;-80
2023/10/27 14:15:43;;;;;;;0.00;0.00;;;;;;;;;;4996324;28;20038;-82
2023/10/27 14:18:08;;;;;;;0.00;0.00;;;;;;;;;;4996456;28;20519;-80
2023/10/27 14:20:34;;;;;;;0.00;0.00;;;;;;;;;;5009464;28;20386;-81
2023/10/27 14:22:59;;;;;;;0.00;0.00;;;;;;;;;;5035418;28;20033;-81
2023/10/27 14:25:27;;;;;;;0.00;0.00;;;;;;;;;;5035465;28;20136;-80
2023/10/27 14:27:53;;;;;;;0.00;0.00;;;;;;;;;;5018106;28;20033;-79
2023/10/27 14:30:19;;;;;;;0.10;0.00;;;;;;;;;;5020219;28;20490;-80
2023/10/27 14:32:45;;;;;;;0.00;0.00;;;;;;;;;;5017273;28;20054;-80
2023/10/27 14:35:10;;;;;;;0.00;0.00;;;;;;;;;;5017832;28;20040;-80
2023/10/27 14:37:36;;;;;;;0.00;0.00;;;;;;;;;;5016412;28;20041;-79
2023/10/27 14:40:02;;;;;;;0.00;0.00;;;;;;;;;;5018988;28;20072;-81
2023/10/27 14:42:28;;;;;;;0.00;0.00;;;;;;;;;;4986235;28;20041;-80
2023/10/27 14:44:54;;;;;;;0.00;0.00;;;;;;;;;;4982294;28;20435;-79
2023/10/27 14:47:20;;;;;;;0.00;0.00;;;;;;;;;;5016230;28;20129;-79
2023/10/27 14:49:46;;;;;;;0.00;0.00;;;;;;;;;;5005381;28;20446;-81
2023/10/27 14:52:11;;;;;;;0.00;0.00;;;;;;;;;;5015586;28;20057;-81
2023/10/27 14:54:37;;;;;;;0.00;0.00;;;;;;;;;;5015419;28;20041;-79
2023/10/27 14:57:03;;;;;;;0.00;0.00;;;;;;;;;;5015369;28;20036;-79
2023/10/27 14:59:28;;;;;;;0.00;0.00;;;;;;;;;;5015439;28;20121;-78
2023/10/27 15:01:54;;;;;;;0.00;0.00;;;;;;;;;;4997413;28;20029;-78
2023/10/27 15:04:19;;;;;;;0.00;0.00;;;;;;;;;;4997506;28;20068;-80
2023/10/27 15:06:45;;;;;;;0.00;0.00;;;;;;;;;;4996828;28;20026;-80
2023/10/27 15:09:13;;;;;;;0.00;0.00;;;;;;;;;;5014774;28;20025;-79
2023/10/27 15:11:40;;;;;;;0.00;0.00;;;;;;;;;;4997555;28;20411;-79
2023/10/27 15:14:09;;;;;;;0.00;0.00;;;;;;;;;;4997996;28;20049;-79
2023/10/27 15:16:36;;;;;;;0.00;0.00;;;;;;;;;;5013311;28;20037;-80
2023/10/27 15:19:02;;;;;;;0.00;0.00;;;;;;;;;;4995114;28;20030;-79
2023/10/27 15:21:28;;;;;;;0.00;0.00;;;;;;;;;;4977498;28;20353;-79
2023/10/27 15:23:54;;;;;;;0.35;0.00;;;;;;;;;;4995337;28;20033;-79
2023/10/27 15:26:21;;;;;;;0.00;0.00;;;;;;;;;;4995070;28;20031;-79
2023/10/27 15:28:47;;;;;;;0.00;0.00;;;;;;;;;;4995099;28;20026;-80
2023/10/27 15:31:12;;;;;;;0.00;0.00;;;;;;;;;;4994873;28;20030;-80
2023/10/27 15:33:38;;;;;;;0.00;0.00;;;;;;;;;;4995375;28;20058;-81
2023/10/27 15:36:05;;;;;;;0.00;0.00;;;;;;;;;;4994930;28;20026;-80